createdAt,value
2018-12-04T00:01:04.678Z,11.70
2018-12-04T00:05:59.639Z,11.60
2018-12-04T00:08:27.188Z,11.60
2018-12-04T00:13:22.085Z,11.70
2018-12-04T00:15:49.526Z,11.70
2018-12-04T00:18:16.969Z,11.70
2018-12-04T00:20:44.444Z,11.70
2018-12-04T00:23:11.866Z,11.70
2018-12-04T00:25:39.356Z,11.70
2018-12-04T00:28:06.788Z,11.70
2018-12-04T00:30:34.328Z,11.70
2018-12-04T00:33:01.776Z,11.60
2018-12-04T00:35:29.232Z,11.60
2018-12-04T00:37:56.694Z,11.50
2018-12-04T00:40:24.146Z,11.50
2018-12-04T00:42:51.573Z,11.50
2018-12-04T00:45:19.025Z,11.50
2018-12-04T00:47:46.498Z,11.60
2018-12-04T00:50:13.944Z,11.60
2018-12-04T00:52:41.423Z,11.50
2018-12-04T00:55:08.888Z,11.50
2018-12-04T00:57:36.316Z,11.50
2018-12-04T01:00:05.388Z,11.40
2018-12-04T01:02:32.825Z,11.30
2018-12-04T01:05:00.516Z,11.20
2018-12-04T01:07:27.932Z,11.10
2018-12-04T01:09:55.390Z,11.10
2018-12-04T01:12:22.853Z,11.00
2018-12-04T01:14:50.349Z,11.00
2018-12-04T01:17:17.896Z,10.90
2018-12-04T01:19:45.365Z,10.80
2018-12-04T01:22:12.804Z,10.80
2018-12-04T01:24:40.271Z,10.80
2018-12-04T01:27:07.710Z,10.90
2018-12-04T01:29:35.160Z,10.90
2018-12-04T01:32:02.625Z,10.90
2018-12-04T01:34:30.065Z,10.90
2018-12-04T01:36:57.514Z,11.00
2018-12-04T01:39:24.968Z,10.90
2018-12-04T01:41:52.512Z,11.00
2018-12-04T01:44:20.001Z,11.00
2018-12-04T01:46:47.457Z,11.10
2018-12-04T01:49:14.903Z,11.10
2018-12-04T01:51:42.362Z,11.10
2018-12-04T01:54:09.848Z,10.80
2018-12-04T01:56:37.321Z,10.80
2018-12-04T01:59:04.766Z,10.80
2018-12-04T02:01:32.290Z,10.70
2018-12-04T02:04:01.712Z,10.70
2018-12-04T02:06:29.150Z,10.70
2018-12-04T02:08:56.583Z,10.60
2018-12-04T02:11:24.028Z,10.60
2018-12-04T02:13:51.505Z,10.60
2018-12-04T02:16:18.964Z,10.60
2018-12-04T02:18:46.400Z,10.50
2018-12-04T02:21:13.917Z,10.50
2018-12-04T02:23:41.367Z,10.40
2018-12-04T02:26:08.831Z,10.40
2018-12-04T02:28:41.358Z,10.40
2018-12-04T02:31:08.855Z,10.40
2018-12-04T02:33:36.286Z,10.40
2018-12-04T02:36:03.840Z,10.40
2018-12-04T02:38:31.261Z,10.50
2018-12-04T02:40:58.708Z,10.50
2018-12-04T02:43:26.144Z,10.50
2018-12-04T02:45:53.600Z,10.50
2018-12-04T02:48:21.063Z,10.60
2018-12-04T02:50:48.498Z,10.70
2018-12-04T02:53:15.950Z,10.70
2018-12-04T02:55:43.469Z,10.70
2018-12-04T02:58:10.902Z,10.70
2018-12-04T03:00:38.378Z,10.70
2018-12-04T03:03:05.957Z,10.70
2018-12-04T03:05:33.429Z,10.70
2018-12-04T03:08:00.852Z,10.80
2018-12-04T03:10:28.317Z,10.80
2018-12-04T03:12:55.748Z,10.90
2018-12-04T03:15:23.227Z,10.80
2018-12-04T03:17:50.675Z,10.80
2018-12-04T03:20:18.121Z,10.90
2018-12-04T03:22:45.557Z,10.90
2018-12-04T03:25:13.003Z,10.90
2018-12-04T03:27:40.442Z,10.90
2018-12-04T03:30:07.993Z,11.00
2018-12-04T03:32:35.603Z,11.00
2018-12-04T03:35:03.341Z,11.00
2018-12-04T03:37:30.792Z,11.00
2018-12-04T03:39:58.242Z,11.00
2018-12-04T03:42:25.688Z,11.00
2018-12-04T03:44:53.115Z,11.00
2018-12-04T03:47:20.576Z,11.00
2018-12-04T03:49:48.009Z,11.00
2018-12-04T03:52:15.471Z,11.00
2018-12-04T03:54:42.916Z,11.00
2018-12-04T03:57:10.372Z,11.00
2018-12-04T03:59:37.816Z,11.10
2018-12-04T04:02:05.310Z,11.10
2018-12-04T04:04:32.793Z,11.10
2018-12-04T04:07:00.321Z,11.10
2018-12-04T04:09:27.769Z,11.10
2018-12-04T04:11:55.209Z,11.10
2018-12-04T04:14:22.658Z,11.10
2018-12-04T04:16:50.093Z,11.00
2018-12-04T04:19:17.564Z,10.90
2018-12-04T04:21:45.045Z,11.00
2018-12-04T04:24:12.503Z,10.90
2018-12-04T04:26:39.959Z,10.80
2018-12-04T04:29:07.395Z,10.80
2018-12-04T04:31:34.853Z,10.80
2018-12-04T04:34:02.359Z,10.80
2018-12-04T04:36:29.812Z,10.80
2018-12-04T04:38:57.263Z,10.70
2018-12-04T04:41:24.712Z,10.70
2018-12-04T04:43:52.236Z,10.70
2018-12-04T04:46:19.686Z,10.60
2018-12-04T04:48:47.149Z,10.60
2018-12-04T04:51:14.594Z,10.60
2018-12-04T04:53:42.020Z,10.60
2018-12-04T04:56:09.486Z,10.60
2018-12-04T04:58:36.922Z,10.60
2018-12-04T05:01:04.391Z,10.50
2018-12-04T05:03:31.844Z,10.60
2018-12-04T05:05:59.289Z,10.50
2018-12-04T05:08:26.828Z,10.60
2018-12-04T05:10:54.355Z,10.60
2018-12-04T05:13:21.806Z,10.60
2018-12-04T05:15:49.323Z,10.60
2018-12-04T05:18:16.896Z,10.50
2018-12-04T05:20:44.477Z,10.50
2018-12-04T05:23:11.917Z,10.50
2018-12-04T05:25:39.364Z,10.50
2018-12-04T05:28:06.897Z,10.50
2018-12-04T05:30:34.358Z,10.60
2018-12-04T05:33:01.807Z,10.70
2018-12-04T05:35:29.257Z,10.60
2018-12-04T05:37:56.711Z,10.60
2018-12-04T05:40:24.197Z,10.60
2018-12-04T05:42:51.629Z,10.50
2018-12-04T05:45:19.087Z,10.50
2018-12-04T05:47:46.517Z,10.50
2018-12-04T05:50:14.011Z,10.50
2018-12-04T05:52:41.445Z,10.40
2018-12-04T05:55:08.889Z,10.40
2018-12-04T05:57:36.334Z,10.40
2018-12-04T06:00:06.498Z,10.30
2018-12-04T06:02:33.992Z,10.40
2018-12-04T06:05:01.456Z,10.30
2018-12-04T06:07:28.888Z,10.30
2018-12-04T06:09:56.334Z,10.30
2018-12-04T06:12:23.802Z,10.30
2018-12-04T06:14:51.235Z,10.20
2018-12-04T06:17:18.686Z,10.20
2018-12-04T06:19:46.147Z,10.30
2018-12-04T06:22:13.649Z,10.20
2018-12-04T06:24:41.118Z,10.20
2018-12-04T06:27:08.568Z,10.20
2018-12-04T06:29:36.006Z,10.20
2018-12-04T06:32:03.501Z,10.10
2018-12-04T06:34:30.937Z,10.20
2018-12-04T06:36:58.384Z,10.20
2018-12-04T06:39:25.821Z,10.20
2018-12-04T06:41:53.377Z,10.30
2018-12-04T06:44:20.826Z,10.30
2018-12-04T06:46:48.288Z,10.30
2018-12-04T06:49:15.718Z,10.30
2018-12-04T06:51:43.187Z,10.30
2018-12-04T06:54:10.620Z,10.30
2018-12-04T06:56:38.072Z,10.30
2018-12-04T06:59:05.572Z,10.30
2018-12-04T07:01:33.081Z,10.20
2018-12-04T07:04:00.598Z,10.20
2018-12-04T07:06:28.092Z,10.20
2018-12-04T07:08:55.550Z,10.10
2018-12-04T07:11:23.003Z,10.10
2018-12-04T07:13:50.448Z,10.00
2018-12-04T07:16:17.897Z,9.90
2018-12-04T07:18:45.331Z,9.90
2018-12-04T07:21:12.769Z,9.80
2018-12-04T07:23:40.197Z,9.80
2018-12-04T07:26:07.646Z,9.80
2018-12-04T07:28:35.161Z,9.80
2018-12-04T07:31:02.600Z,9.80
2018-12-04T07:33:30.058Z,9.80
2018-12-04T07:35:57.504Z,9.80
2018-12-04T07:38:24.947Z,9.90
2018-12-04T07:40:52.398Z,9.90
2018-12-04T07:43:19.865Z,10.00
2018-12-04T07:45:48.243Z,10.00
2018-12-04T07:48:15.742Z,9.90
2018-12-04T07:50:43.180Z,10.00
2018-12-04T07:53:10.633Z,10.00
2018-12-04T07:55:38.072Z,10.00
2018-12-04T07:58:05.565Z,10.00
2018-12-04T08:00:33.013Z,10.10
2018-12-04T08:03:00.464Z,10.10
2018-12-04T08:05:27.909Z,10.10
2018-12-04T08:07:55.360Z,10.10
2018-12-04T08:10:22.792Z,10.20
2018-12-04T08:12:50.249Z,10.20
2018-12-04T08:15:17.690Z,10.20
2018-12-04T08:17:45.128Z,10.20
2018-12-04T08:20:12.588Z,10.20
2018-12-04T08:22:40.028Z,10.20
2018-12-04T08:25:07.529Z,10.20
2018-12-04T08:27:35.014Z,10.20
2018-12-04T08:30:02.550Z,10.20
2018-12-04T08:32:29.999Z,10.20
2018-12-04T08:34:57.471Z,10.30
2018-12-04T08:37:24.975Z,10.40
2018-12-04T08:39:52.411Z,10.50
2018-12-04T08:42:19.889Z,10.60
2018-12-04T08:44:47.313Z,10.60
2018-12-04T08:47:14.788Z,10.70
2018-12-04T08:49:42.227Z,10.80
2018-12-04T08:52:09.672Z,10.80
2018-12-04T08:54:37.127Z,10.70
2018-12-04T08:57:04.639Z,10.70
2018-12-04T08:59:32.073Z,10.60
2018-12-04T09:01:59.541Z,10.70
2018-12-04T09:04:26.984Z,10.90
2018-12-04T09:06:54.484Z,11.00
2018-12-04T09:09:22.080Z,11.10
2018-12-04T09:11:49.517Z,11.20
2018-12-04T09:14:16.968Z,11.20
2018-12-04T09:16:44.399Z,11.00
2018-12-04T09:19:11.862Z,11.00
2018-12-04T09:21:39.396Z,11.00
2018-12-04T09:24:06.960Z,11.10
2018-12-04T09:26:34.509Z,11.00
2018-12-04T09:29:02.076Z,11.00
2018-12-04T09:31:29.582Z,11.10
2018-12-04T09:33:57.042Z,11.10
2018-12-04T09:36:24.624Z,11.10
2018-12-04T09:38:52.139Z,11.00
2018-12-04T09:41:19.657Z,11.00
2018-12-04T09:43:47.118Z,11.00
2018-12-04T09:46:14.552Z,10.90
2018-12-04T09:48:42.028Z,10.80
2018-12-04T09:51:09.520Z,10.80
2018-12-04T09:53:36.974Z,10.70
2018-12-04T09:56:04.401Z,10.70
2018-12-04T09:58:31.852Z,10.80
2018-12-04T10:00:59.298Z,10.80
2018-12-04T10:03:26.752Z,10.80
2018-12-04T10:05:54.200Z,10.80
2018-12-04T10:08:21.663Z,10.80
2018-12-04T10:10:49.112Z,10.80
2018-12-04T10:13:16.631Z,10.80
2018-12-04T10:15:44.078Z,10.80
2018-12-04T10:18:11.560Z,10.90
2018-12-04T10:20:39.059Z,11.10
2018-12-04T10:23:06.527Z,11.10
2018-12-04T10:25:33.969Z,11.10
2018-12-04T10:28:01.397Z,11.20
2018-12-04T10:30:28.872Z,11.20
2018-12-04T10:32:56.296Z,11.20
2018-12-04T10:35:23.756Z,11.20
2018-12-04T10:37:51.196Z,11.20
2018-12-04T10:40:18.644Z,11.20
2018-12-04T10:42:46.092Z,11.20
2018-12-04T10:45:13.543Z,11.20
2018-12-04T10:47:41.039Z,11.10
2018-12-04T10:50:08.557Z,11.10
2018-12-04T10:52:35.989Z,11.10
2018-12-04T10:55:04.520Z,11.10
2018-12-04T10:57:32.055Z,11.20
2018-12-04T10:59:59.499Z,11.20
2018-12-04T11:02:26.938Z,11.20
2018-12-04T11:04:54.406Z,11.20
2018-12-04T11:07:21.858Z,11.20
2018-12-04T11:09:49.302Z,11.10
2018-12-04T11:12:16.792Z,11.00
2018-12-04T11:14:44.250Z,10.90
2018-12-04T11:17:11.737Z,10.70
2018-12-04T11:19:39.176Z,10.50
2018-12-04T11:22:06.643Z,10.30
2018-12-04T11:24:34.114Z,10.10
2018-12-04T11:27:01.540Z,10.00
2018-12-04T11:29:29.038Z,10.00
2018-12-04T11:31:56.531Z,10.10
2018-12-04T11:34:24.031Z,10.10
2018-12-04T11:36:51.508Z,10.10
2018-12-04T11:39:18.964Z,10.10
2018-12-04T11:41:46.499Z,10.20
2018-12-04T11:44:14.011Z,10.20
2018-12-04T11:46:41.497Z,10.30
2018-12-04T11:49:08.944Z,10.30
2018-12-04T11:51:36.411Z,10.30
2018-12-04T11:54:03.954Z,10.30
2018-12-04T11:56:31.445Z,10.20
2018-12-04T11:58:59.015Z,10.30
2018-12-04T12:01:28.235Z,10.40
2018-12-04T12:03:55.723Z,10.30
2018-12-04T12:06:23.198Z,10.30
2018-12-04T12:08:50.634Z,10.20
2018-12-04T12:11:18.108Z,10.20
2018-12-04T12:13:45.559Z,10.20
2018-12-04T12:16:13.023Z,10.30
2018-12-04T12:18:40.443Z,10.30
2018-12-04T12:21:07.948Z,10.30
2018-12-04T12:23:35.386Z,10.30
2018-12-04T12:26:02.916Z,10.30
2018-12-04T12:28:30.367Z,10.20
2018-12-04T12:30:57.808Z,10.10
2018-12-04T12:33:25.299Z,10.30
2018-12-04T12:35:52.746Z,10.40
2018-12-04T12:38:20.184Z,10.40
2018-12-04T12:40:47.631Z,10.30
2018-12-04T12:43:15.097Z,10.10
2018-12-04T12:45:42.544Z,9.90
2018-12-04T12:48:09.968Z,9.70
2018-12-04T12:50:37.437Z,9.60
2018-12-04T12:53:04.874Z,9.50
2018-12-04T12:55:32.320Z,9.30
2018-12-04T12:57:59.749Z,9.30
2018-12-04T13:00:27.289Z,9.30
2018-12-04T13:02:54.716Z,9.10
2018-12-04T13:05:22.176Z,9.10
2018-12-04T13:07:49.630Z,9.10
2018-12-04T13:10:17.276Z,9.00
2018-12-04T13:12:44.709Z,9.10
2018-12-04T13:15:12.276Z,9.10
2018-12-04T13:17:39.713Z,9.20
2018-12-04T13:20:07.219Z,9.30
2018-12-04T13:22:34.748Z,9.30
2018-12-04T13:25:02.284Z,9.40
2018-12-04T13:27:29.762Z,9.40
2018-12-04T13:29:57.271Z,9.50
2018-12-04T13:32:24.698Z,9.70
2018-12-04T13:34:52.145Z,9.80
2018-12-04T13:37:19.598Z,9.70
2018-12-04T13:39:47.049Z,9.80
2018-12-04T13:42:14.588Z,9.90
2018-12-04T13:44:42.241Z,10.00
2018-12-04T13:47:09.806Z,10.10
2018-12-04T13:49:37.335Z,10.20
2018-12-04T13:52:04.796Z,10.30
2018-12-04T13:54:32.241Z,10.10
2018-12-04T13:56:59.739Z,10.20
2018-12-04T13:59:27.265Z,10.20
2018-12-04T14:01:54.735Z,10.30
2018-12-04T14:04:22.191Z,10.30
2018-12-04T14:06:49.731Z,10.20
2018-12-04T14:09:17.189Z,10.10
2018-12-04T14:11:44.644Z,10.00
2018-12-04T14:14:12.168Z,9.70
2018-12-04T14:16:39.629Z,9.60
2018-12-04T14:19:07.054Z,9.50
2018-12-04T14:21:34.501Z,9.40
2018-12-04T14:24:02.057Z,9.30
2018-12-04T14:26:29.641Z,9.30
2018-12-04T14:28:57.183Z,9.30
2018-12-04T14:31:24.672Z,9.30
2018-12-04T14:33:52.106Z,9.30
2018-12-04T14:36:19.550Z,9.30
2018-12-04T14:38:47.095Z,9.30
2018-12-04T14:41:14.669Z,9.40
2018-12-04T14:43:42.191Z,9.50
2018-12-04T14:46:09.718Z,9.50
2018-12-04T14:48:37.190Z,9.40
2018-12-04T14:51:04.745Z,9.30
2018-12-04T14:53:32.283Z,9.30
2018-12-04T14:55:59.836Z,9.30
2018-12-04T14:58:27.340Z,9.20
2018-12-04T15:00:54.764Z,9.20
2018-12-04T15:03:22.240Z,9.20
2018-12-04T15:05:49.771Z,9.20
2018-12-04T15:08:17.259Z,9.30
2018-12-04T15:10:44.794Z,9.30
2018-12-04T15:13:12.328Z,9.20
2018-12-04T15:15:39.753Z,9.10
2018-12-04T15:18:07.234Z,9.10
2018-12-04T15:20:34.944Z,9.00
2018-12-04T15:23:02.388Z,9.00
2018-12-04T15:25:29.943Z,8.90
2018-12-04T15:27:57.458Z,8.80
2018-12-04T15:30:24.942Z,8.80
2018-12-04T15:32:52.463Z,8.80
2018-12-04T15:35:19.902Z,8.80
2018-12-04T15:37:47.383Z,8.80
2018-12-04T15:40:14.875Z,8.90
2018-12-04T15:42:42.313Z,8.80
2018-12-04T15:45:09.914Z,8.80
2018-12-04T15:47:37.536Z,8.80
2018-12-04T15:50:06.243Z,8.80
2018-12-04T15:52:33.704Z,8.90
2018-12-04T15:55:01.340Z,8.80
2018-12-04T15:57:28.878Z,8.80
2018-12-04T15:59:56.327Z,8.80
2018-12-04T16:02:23.780Z,8.90
2018-12-04T16:04:51.207Z,8.80
2018-12-04T16:07:18.660Z,8.90
2018-12-04T16:09:46.586Z,8.80
2018-12-04T16:12:14.057Z,8.90
2018-12-04T16:14:41.572Z,8.90
2018-12-04T16:17:15.062Z,8.90
2018-12-04T16:19:38.440Z,8.90
2018-12-04T16:22:05.941Z,8.90
2018-12-04T16:24:33.368Z,8.90
2018-12-04T16:27:00.828Z,8.90
2018-12-04T16:29:28.274Z,8.90
2018-12-04T16:31:55.741Z,8.90
2018-12-04T16:34:23.252Z,8.90
2018-12-04T16:36:50.699Z,8.90
2018-12-04T16:39:18.234Z,8.80
2018-12-04T16:41:45.689Z,8.60
2018-12-04T16:44:13.120Z,8.60
2018-12-04T16:46:40.632Z,8.60
2018-12-04T16:49:08.054Z,8.60
2018-12-04T16:51:35.554Z,8.60
2018-12-04T16:54:03.271Z,8.60
2018-12-04T16:56:30.777Z,8.50
2018-12-04T16:58:58.271Z,8.50
2018-12-04T17:01:25.747Z,8.40
2018-12-04T17:03:53.266Z,8.30
2018-12-04T17:06:20.752Z,8.20
2018-12-04T17:08:48.273Z,8.30
2018-12-04T17:11:15.740Z,8.30
2018-12-04T17:13:43.234Z,8.30
2018-12-04T17:16:10.722Z,8.20
2018-12-04T17:18:38.237Z,8.20
2018-12-04T17:21:05.728Z,8.20
2018-12-04T17:23:33.264Z,8.20
2018-12-04T17:26:00.773Z,8.10
2018-12-04T17:28:28.445Z,8.10
2018-12-04T17:30:55.925Z,8.00
2018-12-04T17:33:23.441Z,8.10
2018-12-04T17:35:50.887Z,8.10
2018-12-04T17:38:18.335Z,8.00
2018-12-04T17:40:45.778Z,8.00
2018-12-04T17:43:13.402Z,8.00
2018-12-04T17:45:40.861Z,8.00
2018-12-04T17:48:08.304Z,8.10
2018-12-04T17:50:35.736Z,8.10
2018-12-04T17:53:03.197Z,8.10
2018-12-04T17:55:30.697Z,8.10
2018-12-04T17:57:58.141Z,8.10
2018-12-04T18:00:25.576Z,8.10
2018-12-04T18:02:53.046Z,8.10
2018-12-04T18:05:20.484Z,7.90
2018-12-04T18:07:47.928Z,7.90
2018-12-04T18:10:15.396Z,7.90
2018-12-04T18:12:42.851Z,7.90
2018-12-04T18:15:10.328Z,7.80
2018-12-04T18:17:37.786Z,7.90
2018-12-04T18:20:05.341Z,7.90
2018-12-04T18:22:32.810Z,8.00
2018-12-04T18:25:00.260Z,8.00
2018-12-04T18:27:27.704Z,7.90
2018-12-04T18:29:55.155Z,7.80
2018-12-04T18:32:22.616Z,7.80
2018-12-04T18:34:50.048Z,7.80
2018-12-04T18:37:17.506Z,7.80
2018-12-04T18:39:44.944Z,7.80
2018-12-04T18:42:12.433Z,7.80
2018-12-04T18:44:39.888Z,7.80
2018-12-04T18:47:07.316Z,7.90
2018-12-04T18:49:35.032Z,7.80
2018-12-04T18:52:02.534Z,7.80
2018-12-04T18:54:30.260Z,7.90
2018-12-04T18:56:57.715Z,7.90
2018-12-04T18:59:25.214Z,8.00
2018-12-04T19:01:52.704Z,8.00
2018-12-04T19:04:20.210Z,7.90
2018-12-04T19:06:47.643Z,8.00
2018-12-04T19:09:15.107Z,8.00
2018-12-04T19:11:42.597Z,8.00
2018-12-04T19:14:10.054Z,8.00
2018-12-04T19:16:37.484Z,7.90
2018-12-04T19:19:04.980Z,8.00
2018-12-04T19:21:32.420Z,7.90
2018-12-04T19:23:59.907Z,8.00
2018-12-04T19:26:27.355Z,7.90
2018-12-04T19:28:54.970Z,7.70
2018-12-04T19:31:22.415Z,7.60
2018-12-04T19:33:49.928Z,7.70
2018-12-04T19:36:17.392Z,7.70
2018-12-04T19:38:45.245Z,7.60
2018-12-04T19:41:12.688Z,7.50
2018-12-04T19:43:40.150Z,7.30
2018-12-04T19:46:07.607Z,7.20
2018-12-04T19:48:35.062Z,7.00
2018-12-04T19:51:02.519Z,7.00
2018-12-04T19:53:29.970Z,6.90
2018-12-04T19:55:57.412Z,6.80
2018-12-04T19:58:24.873Z,6.70
2018-12-04T20:00:52.300Z,6.60
2018-12-04T20:03:19.789Z,6.60
2018-12-04T20:05:47.268Z,6.50
2018-12-04T20:08:15.577Z,6.40
2018-12-04T20:10:43.037Z,6.20
2018-12-04T20:13:10.495Z,6.10
2018-12-04T20:15:37.937Z,6.00
2018-12-04T20:18:05.441Z,5.90
2018-12-04T20:20:32.881Z,5.90
2018-12-04T20:23:00.349Z,5.90
2018-12-04T20:25:27.807Z,5.80
2018-12-04T20:27:55.269Z,5.80
2018-12-04T20:30:22.720Z,5.80
2018-12-04T20:32:50.174Z,5.80
2018-12-04T20:35:17.617Z,5.70
2018-12-04T20:37:45.064Z,5.60
2018-12-04T20:40:12.507Z,5.50
2018-12-04T20:42:39.976Z,5.50
2018-12-04T20:45:07.544Z,5.60
2018-12-04T20:47:34.980Z,5.70
2018-12-04T20:50:02.461Z,5.70
2018-12-04T20:52:29.935Z,5.80
2018-12-04T20:54:57.419Z,5.60
2018-12-04T20:57:24.885Z,5.50
2018-12-04T20:59:52.351Z,5.50
2018-12-04T21:02:19.857Z,5.40
2018-12-04T21:04:47.321Z,5.50
2018-12-04T21:07:14.782Z,5.40
2018-12-04T21:09:42.237Z,5.40
2018-12-04T21:12:09.676Z,5.50
2018-12-04T21:14:37.151Z,5.60
2018-12-04T21:17:04.609Z,5.60
2018-12-04T21:19:32.076Z,5.60
2018-12-04T21:21:59.540Z,5.60
2018-12-04T21:24:26.984Z,5.70
2018-12-04T21:26:54.422Z,5.70
2018-12-04T21:29:27.459Z,5.80
2018-12-04T21:32:00.668Z,5.70
2018-12-04T21:34:33.859Z,5.80
2018-12-04T21:37:07.017Z,5.70
2018-12-04T21:39:35.818Z,5.70
2018-12-04T21:42:05.583Z,5.70
2018-12-04T21:44:38.818Z,5.70
2018-12-04T21:47:12.078Z,5.70
2018-12-04T21:49:39.519Z,5.70
2018-12-04T21:52:06.992Z,5.70
2018-12-04T21:54:34.443Z,5.60
2018-12-04T21:57:01.966Z,5.60
2018-12-04T21:59:29.427Z,5.60
2018-12-04T22:01:56.856Z,5.60
2018-12-04T22:04:24.330Z,5.60
2018-12-04T22:06:51.765Z,5.60
2018-12-04T22:09:19.220Z,5.70
2018-12-04T22:11:46.677Z,5.80
2018-12-04T22:14:14.148Z,5.80
2018-12-04T22:16:41.576Z,5.80
2018-12-04T22:19:09.047Z,5.80
2018-12-04T22:21:36.498Z,5.90
2018-12-04T22:24:04.008Z,5.90
2018-12-04T22:26:31.448Z,5.90
2018-12-04T22:28:58.897Z,5.90
2018-12-04T22:31:26.346Z,6.00
2018-12-04T22:33:53.845Z,6.00
2018-12-04T22:36:21.309Z,6.10
2018-12-04T22:38:48.760Z,6.10
2018-12-04T22:41:16.207Z,6.10
2018-12-04T22:43:43.669Z,6.10
2018-12-04T22:46:11.109Z,6.10
2018-12-04T22:48:38.558Z,6.10
2018-12-04T22:51:06.013Z,6.20
2018-12-04T22:53:33.461Z,6.10
2018-12-04T22:56:00.906Z,6.10
2018-12-04T22:58:28.380Z,6.10
2018-12-04T23:00:55.892Z,6.10
2018-12-04T23:03:23.376Z,6.20
2018-12-04T23:05:50.836Z,6.10
2018-12-04T23:08:18.278Z,6.00
2018-12-04T23:10:45.782Z,6.10
2018-12-04T23:13:13.294Z,6.00
2018-12-04T23:15:40.776Z,6.00
2018-12-04T23:18:08.202Z,6.00
2018-12-04T23:20:35.677Z,5.90
2018-12-04T23:23:03.251Z,6.00
2018-12-04T23:25:30.776Z,5.90
2018-12-04T23:27:58.246Z,5.90
2018-12-04T23:30:25.793Z,5.90
2018-12-04T23:32:53.276Z,5.90
2018-12-04T23:35:20.786Z,5.90
2018-12-04T23:37:48.227Z,5.90
2018-12-04T23:40:15.676Z,5.90
2018-12-04T23:42:43.127Z,5.90
2018-12-04T23:45:10.685Z,6.00
2018-12-04T23:47:38.120Z,6.00
2018-12-04T23:50:05.723Z,5.90
2018-12-04T23:52:33.152Z,5.90
2018-12-04T23:55:00.680Z,5.90
2018-12-04T23:57:28.123Z,6.00
2018-12-04T23:59:55.591Z,6.00
